Time;durP1;ratioP1;P1;durP2;ratioP2;P2;SDS_P1;SDS_P2;PMS_P1;PMS_P2;Temp;Humidity;BMP_temperature;BMP_pressure;BME280_temperature;BME280_humidity;BME280_pressure;Samples;Min_cycle;Max_cycle;Signal;HPM_P1;HPM_P2
2023/06/18 00:01:52;;;;;;;;;;;12.40;99.90;;;;;;5073590;28;20003;-62
2023/06/18 00:04:19;;;;;;;;;;;12.60;99.90;;;;;;5073042;28;19943;-62
2023/06/18 00:06:45;;;;;;;;;;;12.60;99.90;;;;;;5091306;28;19973;-63
2023/06/18 00:09:12;;;;;;;;;;;12.80;99.90;;;;;;5091810;28;19961;-63
2023/06/18 00:11:39;;;;;;;;;;;12.90;99.90;;;;;;5089430;28;19927;-63
2023/06/18 00:14:05;;;;;;;;;;;13.00;99.90;;;;;;5091196;28;19912;-63
2023/06/18 00:16:32;;;;;;;;;;;13.00;99.90;;;;;;5075192;28;19908;-62
2023/06/18 00:18:59;;;;;;;;;;;13.20;99.90;;;;;;5071790;28;19912;-63
2023/06/18 00:21:26;;;;;;;;;;;13.40;99.90;;;;;;5073425;28;19909;-63
2023/06/18 00:23:52;;;;;;;;;;;13.40;99.90;;;;;;5073256;28;19976;-63
2023/06/18 00:26:19;;;;;;;;;;;13.50;99.90;;;;;;5073282;28;19923;-62
2023/06/18 00:28:46;;;;;;;;;;;13.60;99.90;;;;;;5073001;28;19908;-62
2023/06/18 00:31:13;;;;;;;;;;;13.80;99.90;;;;;;5078206;28;19920;-63
2023/06/18 00:33:40;;;;;;;;;;;13.80;99.90;;;;;;5093347;28;19965;-63
2023/06/18 00:36:07;;;;;;;;;;;14.10;99.90;;;;;;5093042;28;19912;-62
2023/06/18 00:38:35;;;;;;;;;;;14.20;99.90;;;;;;5092864;28;19965;-63
2023/06/18 00:41:02;;;;;;;;;;;14.30;99.90;;;;;;5092890;28;19915;-63
2023/06/18 00:43:28;;;;;;;;;;;14.30;99.90;;;;;;5067149;28;20292;-63
2023/06/18 00:46:00;;;;;;;;;;;14.50;99.60;;;;;;5072047;28;20224;-63
2023/06/18 00:48:27;;;;;;;;;;;14.50;98.80;;;;;;5072934;28;19991;-62
2023/06/18 00:50:54;;;;;;;;;;;14.70;98.70;;;;;;5055077;28;19908;-61
2023/06/18 00:53:21;;;;;;;;;;;14.80;97.80;;;;;;5072512;28;19917;-62
2023/06/18 00:55:51;;;;;;;;;;;15.00;97.70;;;;;;5090781;28;19956;-60
2023/06/18 00:58:23;;;;;;;;;;;15.10;97.70;;;;;;5072315;28;19916;-61
2023/06/18 01:00:53;;;;;;;;;;;15.30;97.30;;;;;;5072742;28;19911;-62
2023/06/18 01:03:21;;;;;;;;;;;15.40;96.80;;;;;;5054904;28;20322;-62
2023/06/18 01:05:50;;;;;;;;;;;15.40;96.10;;;;;;5072316;28;19916;-62
2023/06/18 01:08:17;;;;;;;;;;;15.60;95.80;;;;;;5072298;28;19909;-62
2023/06/18 01:10:43;;;;;;;;;;;15.60;95.30;;;;;;5073934;28;19915;-62
2023/06/18 01:13:14;;;;;;;;;;;15.80;95.20;;;;;;5079066;28;19913;-63
2023/06/18 01:15:41;;;;;;;;;;;16.00;95.30;;;;;;5072521;28;19909;-62
2023/06/18 01:18:08;;;;;;;;;;;16.10;94.70;;;;;;5082067;28;19913;-61
2023/06/18 01:20:40;;;;;;;;;;;16.20;94.00;;;;;;5092536;28;20353;-61
2023/06/18 01:23:23;;;;;;;;;;;16.20;94.10;;;;;;5092338;28;19934;-62
2023/06/18 01:25:50;;;;;;;;;;;16.30;94.30;;;;;;5090614;28;19927;-62
2023/06/18 01:28:17;;;;;;;;;;;16.40;93.80;;;;;;5093374;28;19954;-62
2023/06/18 01:30:44;;;;;;;;;;;16.50;92.60;;;;;;5096711;28;19908;-62
2023/06/18 01:33:12;;;;;;;;;;;16.50;92.80;;;;;;5096459;28;19912;-62
2023/06/18 01:35:39;;;;;;;;;;;16.80;92.40;;;;;;5096332;28;20315;-62
2023/06/18 01:38:24;;;;;;;;;;;16.80;91.90;;;;;;5083703;28;20284;-61
2023/06/18 01:40:54;;;;;;;;;;;16.90;91.70;;;;;;5076054;28;19909;-63
2023/06/18 01:43:20;;;;;;;;;;;16.90;91.80;;;;;;5089440;28;19927;-61
2023/06/18 01:45:49;;;;;;;;;;;17.10;91.90;;;;;;5096060;28;19973;-62
2023/06/18 01:48:18;;;;;;;;;;;17.10;90.70;;;;;;5096310;28;20033;-62
2023/06/18 01:50:47;;;;;;;;;;;17.10;90.10;;;;;;5096398;28;19943;-61
2023/06/18 01:53:17;;;;;;;;;;;17.10;90.20;;;;;;5078708;28;19915;-62
2023/06/18 01:55:49;;;;;;;;;;;17.30;90.20;;;;;;5075629;28;20369;-63
2023/06/18 01:58:16;;;;;;;;;;;17.30;89.20;;;;;;5091242;28;19908;-62
2023/06/18 02:00:43;;;;;;;;;;;17.60;88.60;;;;;;5096052;28;20340;-62
2023/06/18 02:03:09;;;;;;;;;;;17.60;88.50;;;;;;5089048;28;20357;-62
2023/06/18 02:05:36;;;;;;;;;;;17.80;89.20;;;;;;5075718;28;19970;-62
2023/06/18 02:08:03;;;;;;;;;;;17.80;88.80;;;;;;5075806;28;20280;-62
2023/06/18 02:10:29;;;;;;;;;;;18.00;88.40;;;;;;5075660;28;19916;-62
2023/06/18 02:12:56;;;;;;;;;;;18.00;87.40;;;;;;5075707;28;19912;-62
2023/06/18 02:15:23;;;;;;;;;;;18.00;88.40;;;;;;5075610;28;20455;-62
2023/06/18 02:17:50;;;;;;;;;;;18.20;86.40;;;;;;5090903;28;19966;-61
2023/06/18 02:20:17;;;;;;;;;;;18.10;87.00;;;;;;5083308;28;19913;-62
2023/06/18 02:22:43;;;;;;;;;;;18.10;86.70;;;;;;5075459;28;19941;-62
2023/06/18 02:25:10;;;;;;;;;;;18.00;87.60;;;;;;5075396;28;19916;-62
2023/06/18 02:27:37;;;;;;;;;;;18.00;86.90;;;;;;5075254;28;20408;-61
2023/06/18 02:30:03;;;;;;;;;;;18.00;86.70;;;;;;5091313;28;19991;-62
2023/06/18 02:32:34;;;;;;;;;;;18.10;86.30;;;;;;5095584;28;19916;-62
2023/06/18 02:35:01;;;;;;;;;;;18.40;85.10;;;;;;5095554;28;19916;-63
2023/06/18 02:37:27;;;;;;;;;;;18.30;84.50;;;;;;5079368;28;20761;-62
2023/06/18 02:39:54;;;;;;;;;;;18.30;84.90;;;;;;5073870;28;19920;-62
2023/06/18 02:42:22;;;;;;;;;;;18.10;84.80;;;;;;5084312;28;20003;-62
2023/06/18 02:44:48;;;;;;;;;;;18.30;84.80;;;;;;5095322;28;19927;-63
2023/06/18 02:47:15;;;;;;;;;;;18.30;83.30;;;;;;5095021;28;19908;-61
2023/06/18 02:49:41;;;;;;;;;;;18.30;83.40;;;;;;5095296;28;19908;-63
2023/06/18 02:52:08;;;;;;;;;;;18.40;83.50;;;;;;5095285;28;19912;-63
2023/06/18 02:54:35;;;;;;;;;;;18.50;83.50;;;;;;5090818;28;19912;-61
2023/06/18 02:57:01;;;;;;;;;;;18.50;83.10;;;;;;5074742;28;19912;-62
2023/06/18 02:59:28;;;;;;;;;;;18.80;83.20;;;;;;5074981;28;20325;-62
2023/06/18 03:01:55;;;;;;;;;;;19.20;82.30;;;;;;5074712;28;20365;-63
2023/06/18 03:04:21;;;;;;;;;;;19.80;80.50;;;;;;5074701;28;19934;-64
2023/06/18 03:06:48;;;;;;;;;;;20.40;78.80;;;;;;5074748;28;19908;-62
2023/06/18 03:09:14;;;;;;;;;;;20.60;77.80;;;;;;5074517;28;19909;-62
2023/06/18 03:11:41;;;;;;;;;;;20.60;77.80;;;;;;5074687;28;20414;-63
2023/06/18 03:14:08;;;;;;;;;;;20.50;77.80;;;;;;5077136;28;19917;-62
2023/06/18 03:16:34;;;;;;;;;;;20.40;77.30;;;;;;5094221;28;19912;-64
2023/06/18 03:19:01;;;;;;;;;;;20.50;77.80;;;;;;5094701;28;19918;-63
2023/06/18 03:21:27;;;;;;;;;;;20.60;75.90;;;;;;5083202;28;19908;-63
2023/06/18 03:23:54;;;;;;;;;;;20.50;75.80;;;;;;5074287;28;20379;-63
2023/06/18 03:26:21;;;;;;;;;;;20.70;75.60;;;;;;5074630;28;19910;-63
2023/06/18 03:28:48;;;;;;;;;;;21.30;71.40;;;;;;5083309;28;19908;-61
2023/06/18 03:31:15;;;;;;;;;;;21.70;70.50;;;;;;5093712;28;19912;-62
2023/06/18 03:33:42;;;;;;;;;;;22.30;68.60;;;;;;5092661;28;19909;-64
2023/06/18 03:36:09;;;;;;;;;;;23.30;65.60;;;;;;5073839;28;19919;-63
2023/06/18 03:38:36;;;;;;;;;;;24.10;63.40;;;;;;5073908;28;19915;-62
2023/06/18 03:41:02;;;;;;;;;;;24.20;62.50;;;;;;5074041;28;20285;-63
2023/06/18 03:43:30;;;;;;;;;;;23.60;61.50;;;;;;5073781;28;19928;-63
2023/06/18 03:45:57;;;;;;;;;;;22.40;63.80;;;;;;5073733;28;19955;-63
2023/06/18 03:48:25;;;;;;;;;;;21.50;64.40;;;;;;5076237;28;19923;-62
2023/06/18 03:50:51;;;;;;;;;;;21.30;65.00;;;;;;5078674;28;20524;-62
2023/06/18 03:53:18;;;;;;;;;;;21.00;65.60;;;;;;5073910;28;19908;-62
2023/06/18 03:55:45;;;;;;;;;;;20.60;66.10;;;;;;5094086;28;20004;-63
2023/06/18 03:58:12;;;;;;;;;;;20.10;67.40;;;;;;5093966;28;19908;-63
2023/06/18 04:00:38;;;;;;;;;;;20.80;67.60;;;;;;5094100;28;19908;-63
2023/06/18 04:03:05;;;;;;;;;;;22.50;65.60;;;;;;5093944;28;20314;-62
2023/06/18 04:05:32;;;;;;;;;;;23.40;63.30;;;;;;5093585;28;20315;-62
2023/06/18 04:07:58;;;;;;;;;;;23.60;62.00;;;;;;5093853;28;19976;-62
2023/06/18 04:10:25;;;;;;;;;;;23.40;62.60;;;;;;5082744;28;20350;-62
2023/06/18 04:12:51;;;;;;;;;;;22.50;63.40;;;;;;5073629;28;19909;-62
2023/06/18 04:15:18;;;;;;;;;;;21.80;64.10;;;;;;5055282;28;20291;-62
2023/06/18 04:17:45;;;;;;;;;;;21.00;64.80;;;;;;5073434;28;20343;-63
2023/06/18 04:20:12;;;;;;;;;;;20.50;65.90;;;;;;5085766;28;19912;-61
2023/06/18 04:22:38;;;;;;;;;;;20.20;67.00;;;;;;5093440;28;19991;-62
2023/06/18 04:25:05;;;;;;;;;;;19.90;67.50;;;;;;5093281;28;20310;-61
2023/06/18 04:27:32;;;;;;;;;;;19.90;68.00;;;;;;5093339;28;19908;-61
2023/06/18 04:29:59;;;;;;;;;;;19.90;67.90;;;;;;5083733;28;19995;-62
2023/06/18 04:32:25;;;;;;;;;;;19.90;68.00;;;;;;5072914;28;20272;-61
2023/06/18 04:34:52;;;;;;;;;;;20.00;68.20;;;;;;5073068;28;19908;-62
2023/06/18 04:37:19;;;;;;;;;;;20.00;68.20;;;;;;5088214;28;20357;-61
2023/06/18 04:39:46;;;;;;;;;;;19.90;68.40;;;;;;5093442;28;19952;-62
2023/06/18 04:42:12;;;;;;;;;;;19.90;68.50;;;;;;5093057;28;19927;-61
2023/06/18 04:44:39;;;;;;;;;;;19.90;69.10;;;;;;5093118;28;19912;-62
2023/06/18 04:47:06;;;;;;;;;;;20.00;69.10;;;;;;5093082;28;20265;-62
2023/06/18 04:49:32;;;;;;;;;;;19.90;69.60;;;;;;5092733;28;19999;-61
2023/06/18 04:51:59;;;;;;;;;;;19.90;69.50;;;;;;5092930;28;19908;-61
2023/06/18 04:54:26;;;;;;;;;;;20.00;70.10;;;;;;5092893;28;20458;-61
2023/06/18 04:56:52;;;;;;;;;;;19.90;69.80;;;;;;5092906;28;20011;-61
2023/06/18 04:59:19;;;;;;;;;;;19.80;69.90;;;;;;5093191;28;20280;-61
2023/06/18 05:01:46;;;;;;;;;;;19.60;70.00;;;;;;5089259;28;19913;-62
2023/06/18 05:04:12;;;;;;;;;;;19.20;70.00;;;;;;5071827;28;20015;-61
2023/06/18 05:06:39;;;;;;;;;;;19.00;70.50;;;;;;5072672;28;19908;-62
2023/06/18 05:09:07;;;;;;;;;;;18.80;71.60;;;;;;5076399;28;19912;-62
2023/06/18 05:11:34;;;;;;;;;;;18.70;71.80;;;;;;5092406;28;19916;-62
2023/06/18 05:14:00;;;;;;;;;;;18.60;72.50;;;;;;5092477;28;19908;-63
2023/06/18 05:16:27;;;;;;;;;;;18.50;72.80;;;;;;5092592;28;20380;-63
2023/06/18 05:18:54;;;;;;;;;;;18.40;73.10;;;;;;5092709;28;19908;-63
2023/06/18 05:21:21;;;;;;;;;;;18.30;73.60;;;;;;5090651;28;19931;-63
2023/06/18 05:23:48;;;;;;;;;;;18.30;73.20;;;;;;5072310;28;19935;-62
2023/06/18 05:26:15;;;;;;;;;;;18.30;72.90;;;;;;5072373;28;19999;-62
2023/06/18 05:28:41;;;;;;;;;;;18.20;72.60;;;;;;5073276;28;19912;-62
2023/06/18 05:31:08;;;;;;;;;;;18.20;73.30;;;;;;5072197;28;19913;-63
2023/06/18 05:33:35;;;;;;;;;;;18.20;73.50;;;;;;5072495;28;19931;-62
2023/06/18 05:36:02;;;;;;;;;;;18.20;72.80;;;;;;5072129;28;19909;-63
2023/06/18 05:38:29;;;;;;;;;;;18.20;72.80;;;;;;5077863;28;20059;-63
2023/06/18 05:40:56;;;;;;;;;;;18.30;72.60;;;;;;5091795;28;19908;-62
2023/06/18 05:43:22;;;;;;;;;;;18.30;72.40;;;;;;5092404;28;19984;-63
2023/06/18 05:45:49;;;;;;;;;;;18.20;73.10;;;;;;5072791;28;20308;-62
2023/06/18 05:48:16;;;;;;;;;;;18.10;73.20;;;;;;5071838;28;19909;-64
2023/06/18 05:50:43;;;;;;;;;;;18.00;73.10;;;;;;5072195;28;20050;-63
2023/06/18 05:53:09;;;;;;;;;;;17.90;73.20;;;;;;5072197;28;20376;-63
2023/06/18 05:55:36;;;;;;;;;;;17.80;73.30;;;;;;5089217;28;20007;-61
2023/06/18 05:58:02;;;;;;;;;;;17.70;73.40;;;;;;5092294;28;19912;-63
2023/06/18 06:00:30;;;;;;;;;;;17.60;73.80;;;;;;5074426;28;19920;-62
2023/06/18 06:02:56;;;;;;;;;;;17.60;74.20;;;;;;5071476;28;19904;-65
2023/06/18 06:05:24;;;;;;;;;;;17.60;74.80;;;;;;5071776;28;19916;-62
2023/06/18 06:07:51;;;;;;;;;;;17.50;74.60;;;;;;5079535;28;19960;-62
2023/06/18 06:10:21;;;;;;;;;;;17.50;75.20;;;;;;5091616;28;19912;-64
2023/06/18 06:12:48;;;;;;;;;;;17.50;75.80;;;;;;5090668;28;19915;-62
2023/06/18 06:15:14;;;;;;;;;;;17.40;76.60;;;;;;5092995;28;19909;-62
2023/06/18 06:17:41;;;;;;;;;;;17.20;77.20;;;;;;5095351;28;19908;-61
2023/06/18 06:20:08;;;;;;;;;;;17.00;77.80;;;;;;5089857;28;20391;-63
2023/06/18 06:22:34;;;;;;;;;;;16.90;78.00;;;;;;5075123;28;19909;-62
2023/06/18 06:25:01;;;;;;;;;;;16.80;79.10;;;;;;5085222;28;20362;-63
2023/06/18 06:27:28;;;;;;;;;;;16.60;79.10;;;;;;5093911;28;19912;-62
2023/06/18 06:29:54;;;;;;;;;;;16.50;79.20;;;;;;5099747;28;20049;-63
2023/06/18 06:32:21;;;;;;;;;;;16.40;78.80;;;;;;5103890;28;19974;-63
2023/06/18 06:34:48;;;;;;;;;;;16.30;79.60;;;;;;5083124;28;19959;-63
2023/06/18 06:37:15;;;;;;;;;;;16.10;79.50;;;;;;5091235;28;20329;-64
2023/06/18 06:39:41;;;;;;;;;;;16.10;79.40;;;;;;5094351;28;19947;-62
2023/06/18 06:42:09;;;;;;;;;;;16.00;79.90;;;;;;5093723;28;19949;-62
2023/06/18 06:44:35;;;;;;;;;;;15.80;80.20;;;;;;5092551;28;19928;-63
2023/06/18 06:47:02;;;;;;;;;;;15.80;80.30;;;;;;5092723;28;19915;-63
2023/06/18 06:49:29;;;;;;;;;;;15.60;80.80;;;;;;5090727;28;19918;-62
2023/06/18 06:51:56;;;;;;;;;;;15.60;80.80;;;;;;5093355;28;19909;-63
2023/06/18 06:54:23;;;;;;;;;;;15.50;80.90;;;;;;5092475;28;19915;-63
2023/06/18 06:56:49;;;;;;;;;;;15.40;81.20;;;;;;5093528;28;19931;-62
2023/06/18 06:59:16;;;;;;;;;;;15.40;82.00;;;;;;5096484;28;19919;-63
2023/06/18 07:01:43;;;;;;;;;;;15.20;82.30;;;;;;5094147;28;19912;-62
2023/06/18 07:04:10;;;;;;;;;;;15.10;82.30;;;;;;5089835;28;19916;-62
2023/06/18 07:06:40;;;;;;;;;;;15.10;82.80;;;;;;5093247;28;19920;-62
2023/06/18 07:09:07;;;;;;;;;;;15.00;83.30;;;;;;5091264;28;19999;-61
2023/06/18 07:11:36;;;;;;;;;;;14.90;83.40;;;;;;5093460;28;19912;-63
2023/06/18 07:14:03;;;;;;;;;;;14.80;83.60;;;;;;5092441;28;19908;-61
2023/06/18 07:16:29;;;;;;;;;;;14.70;83.80;;;;;;5093543;28;19951;-61
2023/06/18 07:18:56;;;;;;;;;;;14.70;83.80;;;;;;5093706;28;19942;-62
2023/06/18 07:21:23;;;;;;;;;;;14.70;84.00;;;;;;5093586;28;20392;-62
2023/06/18 07:23:49;;;;;;;;;;;14.60;84.30;;;;;;5092973;28;19919;-62
2023/06/18 07:26:16;;;;;;;;;;;14.50;84.30;;;;;;5092353;28;19916;-62
2023/06/18 07:28:42;;;;;;;;;;;14.50;84.70;;;;;;5091004;28;19961;-62
2023/06/18 07:31:09;;;;;;;;;;;14.40;84.90;;;;;;5093021;28;19912;-61
2023/06/18 07:33:36;;;;;;;;;;;14.30;84.80;;;;;;5091066;28;19908;-63
2023/06/18 07:36:02;;;;;;;;;;;14.30;84.90;;;;;;5089111;28;19912;-62
2023/06/18 07:38:29;;;;;;;;;;;14.30;85.10;;;;;;5092031;28;19908;-63
2023/06/18 07:40:56;;;;;;;;;;;14.20;85.50;;;;;;5091624;28;19912;-64
2023/06/18 07:43:22;;;;;;;;;;;14.20;85.70;;;;;;5091026;28;19939;-61
2023/06/18 07:45:49;;;;;;;;;;;14.10;85.80;;;;;;5081085;28;20329;-63
2023/06/18 07:48:16;;;;;;;;;;;14.00;86.10;;;;;;5092477;28;20327;-63
2023/06/18 07:50:42;;;;;;;;;;;14.00;86.70;;;;;;5093126;28;20329;-63
2023/06/18 07:53:09;;;;;;;;;;;13.90;86.50;;;;;;5085441;28;19918;-65
2023/06/18 07:55:35;;;;;;;;;;;13.80;86.80;;;;;;5092686;28;20319;-65
2023/06/18 07:58:02;;;;;;;;;;;13.80;86.80;;;;;;5092141;28;19912;-62
2023/06/18 08:00:29;;;;;;;;;;;13.80;87.00;;;;;;5092733;28;19912;-63
2023/06/18 08:02:56;;;;;;;;;;;13.70;87.30;;;;;;5092438;28;19934;-64
2023/06/18 08:05:22;;;;;;;;;;;13.80;87.00;;;;;;5091599;28;19985;-64
2023/06/18 08:07:49;;;;;;;;;;;13.70;87.30;;;;;;5092535;28;20010;-62
2023/06/18 08:10:16;;;;;;;;;;;13.60;87.20;;;;;;5094476;28;20003;-62
2023/06/18 08:12:42;;;;;;;;;;;13.60;87.50;;;;;;5091755;28;19912;-63
2023/06/18 08:15:10;;;;;;;;;;;13.60;87.50;;;;;;5092311;28;19915;-62
2023/06/18 08:17:37;;;;;;;;;;;13.50;87.20;;;;;;5092411;28;19912;-64
2023/06/18 08:20:04;;;;;;;;;;;13.50;87.40;;;;;;5091838;28;20037;-62
2023/06/18 08:22:31;;;;;;;;;;;13.50;87.50;;;;;;5089220;28;19944;-61
2023/06/18 08:24:57;;;;;;;;;;;13.40;87.60;;;;;;5091369;28;19924;-62
2023/06/18 08:27:24;;;;;;;;;;;13.40;87.80;;;;;;5091159;28;19943;-64
2023/06/18 08:29:50;;;;;;;;;;;13.30;87.70;;;;;;5089265;28;19908;-63
2023/06/18 08:32:17;;;;;;;;;;;13.30;87.80;;;;;;5091315;28;19909;-61
2023/06/18 08:34:45;;;;;;;;;;;13.30;88.00;;;;;;5091845;28;19912;-64
2023/06/18 08:37:12;;;;;;;;;;;13.30;88.20;;;;;;5088751;28;20002;-63
2023/06/18 08:39:39;;;;;;;;;;;13.20;88.40;;;;;;5091844;28;19938;-63
2023/06/18 08:42:06;;;;;;;;;;;13.20;88.70;;;;;;5090028;28;19933;-62
2023/06/18 08:44:34;;;;;;;;;;;13.10;89.00;;;;;;5090799;28;20231;-60
2023/06/18 08:47:03;;;;;;;;;;;13.10;89.20;;;;;;5091737;28;19930;-61
2023/06/18 08:49:30;;;;;;;;;;;13.00;89.60;;;;;;5092146;28;19940;-62
2023/06/18 08:51:57;;;;;;;;;;;13.00;90.00;;;;;;5092055;28;19908;-62
2023/06/18 08:54:27;;;;;;;;;;;12.90;90.10;;;;;;5090519;28;19908;-62
2023/06/18 08:56:56;;;;;;;;;;;12.90;90.10;;;;;;5089691;28;19908;-64
2023/06/18 08:59:24;;;;;;;;;;;12.80;90.20;;;;;;5090620;28;19912;-62
2023/06/18 09:01:52;;;;;;;;;;;12.80;90.30;;;;;;5087767;28;19908;-61
2023/06/18 09:04:21;;;;;;;;;;;12.80;90.30;;;;;;5089262;28;19924;-62
2023/06/18 09:06:48;;;;;;;;;;;12.70;90.40;;;;;;5089155;28;20050;-63
2023/06/18 09:09:15;;;;;;;;;;;12.70;90.50;;;;;;5089509;28;19923;-63
2023/06/18 09:11:42;;;;;;;;;;;12.60;90.40;;;;;;5090022;28;19916;-61
2023/06/18 09:14:09;;;;;;;;;;;12.70;90.50;;;;;;5089022;28;19908;-63
2023/06/18 09:16:36;;;;;;;;;;;12.70;90.50;;;;;;5089718;28;19908;-64
2023/06/18 09:19:03;;;;;;;;;;;12.60;90.50;;;;;;5089023;28;20392;-63
2023/06/18 09:21:40;;;;;;;;;;;12.60;90.60;;;;;;5089569;28;19918;-62
2023/06/18 09:24:08;;;;;;;;;;;12.40;90.60;;;;;;5088606;28;19915;-62
2023/06/18 09:26:35;;;;;;;;;;;12.40;90.80;;;;;;5091858;28;19912;-61
2023/06/18 09:29:03;;;;;;;;;;;12.40;90.70;;;;;;5091574;28;19908;-60
2023/06/18 09:31:30;;;;;;;;;;;12.30;90.60;;;;;;5091581;28;19977;-62
2023/06/18 09:33:56;;;;;;;;;;;12.30;90.70;;;;;;5091399;28;19997;-61
2023/06/18 09:36:25;;;;;;;;;;;12.20;90.80;;;;;;5089805;28;19950;-62
2023/06/18 09:38:53;;;;;;;;;;;12.20;90.80;;;;;;5089118;28;20034;-61
2023/06/18 09:41:20;;;;;;;;;;;12.20;90.80;;;;;;5091035;28;19912;-62
2023/06/18 09:43:48;;;;;;;;;;;12.10;90.80;;;;;;5084253;28;19912;-61
2023/06/18 09:46:15;;;;;;;;;;;12.10;90.90;;;;;;5090642;28;19924;-63
2023/06/18 09:48:46;;;;;;;;;;;12.00;90.90;;;;;;5091391;28;19908;-61
2023/06/18 09:51:16;;;;;;;;;;;12.00;90.80;;;;;;5092021;28;20004;-61
2023/06/18 09:53:43;;;;;;;;;;;12.00;91.20;;;;;;5094594;28;20410;-62
2023/06/18 09:56:11;;;;;;;;;;;12.00;91.00;;;;;;5094813;28;20019;-63
2023/06/18 09:58:41;;;;;;;;;;;11.90;91.10;;;;;;5095126;28;19915;-61
2023/06/18 10:01:08;;;;;;;;;;;11.90;91.10;;;;;;5094212;28;19919;-62
2023/06/18 10:03:36;;;;;;;;;;;11.90;91.10;;;;;;5076702;28;19916;-62
2023/06/18 10:06:10;;;;;;;;;;;11.80;91.20;;;;;;5093596;28;19959;-63
2023/06/18 10:08:38;;;;;;;;;;;11.80;91.20;;;;;;5093468;28;20434;-60
2023/06/18 10:11:06;;;;;;;;;;;11.70;91.30;;;;;;5094939;28;19962;-61
2023/06/18 10:13:33;;;;;;;;;;;11.70;91.30;;;;;;5093165;28;19908;-63
2023/06/18 10:16:00;;;;;;;;;;;11.70;91.40;;;;;;5078617;28;19913;-62
2023/06/18 10:18:27;;;;;;;;;;;11.60;91.60;;;;;;5087243;28;20042;-65
2023/06/18 10:20:55;;;;;;;;;;;11.60;91.40;;;;;;5094520;28;20276;-62
2023/06/18 10:23:22;;;;;;;;;;;11.60;91.50;;;;;;5089201;28;19920;-62
2023/06/18 10:25:49;;;;;;;;;;;11.50;91.50;;;;;;5093028;28;19963;-61
2023/06/18 10:28:16;;;;;;;;;;;11.60;91.50;;;;;;5093841;28;20288;-62
2023/06/18 10:30:43;;;;;;;;;;;11.60;91.40;;;;;;5094706;28;20281;-61
2023/06/18 10:33:09;;;;;;;;;;;11.60;91.50;;;;;;5093680;28;19912;-62
2023/06/18 10:35:36;;;;;;;;;;;11.50;91.40;;;;;;5093587;28;19908;-61
2023/06/18 10:38:04;;;;;;;;;;;11.40;91.40;;;;;;5093250;28;19929;-63
2023/06/18 10:40:30;;;;;;;;;;;11.40;91.40;;;;;;5094262;28;20053;-62
2023/06/18 10:43:04;;;;;;;;;;;11.40;91.40;;;;;;5093341;28;19924;-62
2023/06/18 10:45:31;;;;;;;;;;;11.40;91.30;;;;;;5090834;28;20008;-61
2023/06/18 10:48:18;;;;;;;;;;;11.40;91.30;;;;;;5091892;28;20288;-63
2023/06/18 10:51:02;;;;;;;;;;;11.40;91.40;;;;;;5085218;28;19912;-62
2023/06/18 10:53:29;;;;;;;;;;;11.30;91.40;;;;;;5093850;28;20441;-61
2023/06/18 10:55:59;;;;;;;;;;;11.30;91.50;;;;;;5093788;28;19999;-63
2023/06/18 10:58:37;;;;;;;;;;;11.30;91.50;;;;;;5094488;28;20265;-59
2023/06/18 11:01:05;;;;;;;;;;;11.30;91.60;;;;;;5093232;28;19916;-63
2023/06/18 11:03:35;;;;;;;;;;;11.20;91.60;;;;;;5094010;28;19908;-62
2023/06/18 11:06:02;;;;;;;;;;;11.20;91.50;;;;;;5093975;28;20011;-63
2023/06/18 11:08:33;;;;;;;;;;;11.20;91.60;;;;;;5093302;28;19909;-61
2023/06/18 11:11:04;;;;;;;;;;;11.20;91.70;;;;;;5073645;28;19913;-62
2023/06/18 11:13:35;;;;;;;;;;;11.10;91.70;;;;;;5076732;28;20019;-61
2023/06/18 11:16:09;;;;;;;;;;;11.10;91.70;;;;;;5076821;28;19938;-62
2023/06/18 11:18:36;;;;;;;;;;;11.10;91.70;;;;;;5073829;28;20007;-63
2023/06/18 11:21:03;;;;;;;;;;;11.10;91.90;;;;;;5075704;28;19955;-62
2023/06/18 11:23:31;;;;;;;;;;;11.00;92.10;;;;;;5077547;28;19919;-63
2023/06/18 11:25:57;;;;;;;;;;;11.00;92.20;;;;;;5074342;28;19928;-62
2023/06/18 11:28:25;;;;;;;;;;;10.90;92.00;;;;;;5114468;28;19923;-63
2023/06/18 11:30:52;;;;;;;;;;;10.90;92.10;;;;;;5093746;28;20358;-62
2023/06/18 11:33:23;;;;;;;;;;;10.90;92.00;;;;;;5073984;28;19912;-62
2023/06/18 11:35:50;;;;;;;;;;;10.90;92.20;;;;;;5074032;28;20360;-61
2023/06/18 11:38:18;;;;;;;;;;;10.80;92.30;;;;;;5077719;28;19909;-63
2023/06/18 11:40:53;;;;;;;;;;;10.70;92.20;;;;;;5081658;28;19912;-62
2023/06/18 11:43:20;;;;;;;;;;;10.70;92.40;;;;;;5084772;28;19964;-62
2023/06/18 11:45:50;;;;;;;;;;;10.60;92.50;;;;;;5072748;28;20332;-63
2023/06/18 11:48:19;;;;;;;;;;;10.70;92.50;;;;;;5073257;28;19916;-62
2023/06/18 11:50:50;;;;;;;;;;;10.60;92.50;;;;;;5085405;28;19912;-63
2023/06/18 11:53:18;;;;;;;;;;;10.60;92.70;;;;;;5093558;28;19908;-62
2023/06/18 11:55:45;;;;;;;;;;;10.60;92.90;;;;;;5093931;28;19908;-61
2023/06/18 11:58:11;;;;;;;;;;;10.60;92.80;;;;;;5073264;28;19909;-63
2023/06/18 12:00:38;;;;;;;;;;;10.50;93.00;;;;;;5079460;28;19908;-63
2023/06/18 12:03:05;;;;;;;;;;;10.40;92.90;;;;;;5093428;28;19915;-63
2023/06/18 12:05:37;;;;;;;;;;;10.40;93.00;;;;;;5093334;28;19916;-62
2023/06/18 12:08:10;;;;;;;;;;;10.40;93.10;;;;;;5093069;28;20346;-62
2023/06/18 12:10:38;;;;;;;;;;;10.40;93.30;;;;;;5082000;28;19920;-61
2023/06/18 12:13:23;;;;;;;;;;;10.30;93.40;;;;;;5072921;28;19915;-62
2023/06/18 12:16:02;;;;;;;;;;;10.30;93.30;;;;;;5093618;28;19951;-62
2023/06/18 12:18:32;;;;;;;;;;;10.20;93.60;;;;;;5101957;28;20011;-61
2023/06/18 12:20:59;;;;;;;;;;;10.20;93.40;;;;;;5092859;28;19908;-61
2023/06/18 12:23:27;;;;;;;;;;;10.20;93.50;;;;;;5078619;28;19913;-60
2023/06/18 12:25:54;;;;;;;;;;;10.20;93.80;;;;;;5072503;28;19917;-62
2023/06/18 12:28:24;;;;;;;;;;;10.20;94.00;;;;;;5072802;28;20361;-62
2023/06/18 12:30:52;;;;;;;;;;;10.10;94.20;;;;;;5081482;28;19908;-63
2023/06/18 12:33:19;;;;;;;;;;;10.10;94.10;;;;;;5083398;28;19913;-62
2023/06/18 12:35:50;;;;;;;;;;;10.10;94.10;;;;;;5072627;28;19909;-59
2023/06/18 12:38:17;;;;;;;;;;;10.10;94.50;;;;;;5072696;28;20563;-63
2023/06/18 12:40:46;;;;;;;;;;;10.10;94.80;;;;;;5080032;28;19999;-66
2023/06/18 12:43:13;;;;;;;;;;;10.00;94.50;;;;;;5092794;28;19920;-61
2023/06/18 12:45:41;;;;;;;;;;;10.00;94.60;;;;;;5088579;28;19920;-60
2023/06/18 12:48:22;;;;;;;;;;;9.90;94.60;;;;;;5080217;28;19956;-61
2023/06/18 12:50:49;;;;;;;;;;;9.90;94.90;;;;;;5092703;28;19961;-61
2023/06/18 12:53:24;;;;;;;;;;;10.00;95.20;;;;;;5081376;28;20408;-62
2023/06/18 12:55:52;;;;;;;;;;;10.00;95.20;;;;;;5072924;28;19954;-63
2023/06/18 12:58:21;;;;;;;;;;;9.90;95.20;;;;;;5072464;28;19908;-61
2023/06/18 13:00:48;;;;;;;;;;;9.80;95.60;;;;;;5080088;28;19908;-62
2023/06/18 13:03:16;;;;;;;;;;;9.90;95.60;;;;;;5092290;28;19908;-62
2023/06/18 13:05:43;;;;;;;;;;;9.80;95.80;;;;;;5092393;28;19916;-62
2023/06/18 13:08:19;;;;;;;;;;;9.70;96.00;;;;;;5092286;28;19908;-62
2023/06/18 13:10:47;;;;;;;;;;;9.60;96.30;;;;;;5079616;28;19912;-63
2023/06/18 13:13:14;;;;;;;;;;;9.60;96.60;;;;;;5091892;28;20028;-62
2023/06/18 13:15:40;;;;;;;;;;;9.60;96.70;;;;;;5089791;28;20411;-61
2023/06/18 13:18:07;;;;;;;;;;;9.50;96.90;;;;;;5111908;28;19953;-64
2023/06/18 13:20:34;;;;;;;;;;;9.50;97.20;;;;;;5106471;28;20331;-62
2023/06/18 13:23:01;;;;;;;;;;;9.50;97.30;;;;;;5084641;28;19912;-63
2023/06/18 13:25:28;;;;;;;;;;;9.40;97.50;;;;;;5075528;28;20035;-61
2023/06/18 13:27:55;;;;;;;;;;;9.40;97.70;;;;;;5076572;28;19916;-62
2023/06/18 13:30:22;;;;;;;;;;;9.40;97.90;;;;;;5095925;28;19912;-63
2023/06/18 13:32:48;;;;;;;;;;;9.30;98.10;;;;;;5096838;28;19953;-63
2023/06/18 13:35:16;;;;;;;;;;;9.30;98.20;;;;;;5088231;28;20270;-62
2023/06/18 13:37:43;;;;;;;;;;;9.30;98.10;;;;;;5076499;28;19909;-62
2023/06/18 13:40:10;;;;;;;;;;;9.30;98.30;;;;;;5086953;28;19972;-62
2023/06/18 13:42:37;;;;;;;;;;;9.30;98.10;;;;;;5084082;28;19932;-61
2023/06/18 13:45:04;;;;;;;;;;;9.30;98.20;;;;;;5075998;28;19970;-62
2023/06/18 13:47:32;;;;;;;;;;;9.30;98.20;;;;;;5058370;28;19909;-62
2023/06/18 13:49:58;;;;;;;;;;;9.30;98.20;;;;;;5094372;28;19919;-61
2023/06/18 13:52:25;;;;;;;;;;;9.30;98.40;;;;;;5095855;28;20354;-63
2023/06/18 13:54:52;;;;;;;;;;;9.20;98.30;;;;;;5096565;28;20289;-63
2023/06/18 13:57:18;;;;;;;;;;;9.20;98.20;;;;;;5085908;28;19999;-61
2023/06/18 13:59:45;;;;;;;;;;;9.20;98.00;;;;;;5076163;28;19909;-62
2023/06/18 14:02:12;;;;;;;;;;;9.30;97.60;;;;;;5093390;28;19912;-63
2023/06/18 14:04:39;;;;;;;;;;;9.30;97.60;;;;;;5097444;28;19951;-62
2023/06/18 14:07:07;;;;;;;;;;;9.30;97.30;;;;;;5096778;28;19915;-62
2023/06/18 14:09:34;;;;;;;;;;;9.30;97.00;;;;;;5079451;28;19916;-62
2023/06/18 14:12:00;;;;;;;;;;;9.30;96.80;;;;;;5077318;28;19944;-61
2023/06/18 14:14:27;;;;;;;;;;;9.40;96.90;;;;;;5096145;28;20330;-61
2023/06/18 14:16:54;;;;;;;;;;;9.40;96.70;;;;;;5097452;28;19912;-61
2023/06/18 14:19:20;;;;;;;;;;;9.30;96.70;;;;;;5116178;28;19904;-62
2023/06/18 14:21:47;;;;;;;;;;;9.30;96.60;;;;;;5095093;28;19916;-62